Time;durP1;ratioP1;P1;durP2;ratioP2;P2;SDS_P1;SDS_P2;PMS_P1;PMS_P2;Temp;Humidity;BMP_temperature;BMP_pressure;BME280_temperature;BME280_humidity;BME280_pressure;Samples;Min_cycle;Max_cycle;Signal;HPM_P1;HPM_P2
2023/12/10 00:00:05;;;;;;;8.45;5.18;;;;;;;16.70;41.86;91904.50;4950669;28;20478;-90
2023/12/10 00:02:31;;;;;;;7.10;4.60;;;;;;;16.68;42.03;91887.19;4965431;28;20131;-91
2023/12/10 00:04:57;;;;;;;7.97;4.97;;;;;;;16.74;41.89;91885.06;4967752;28;20053;-90
2023/12/10 00:07:22;;;;;;;6.53;4.35;;;;;;;16.74;41.81;91890.50;4965535;28;20064;-90
2023/12/10 00:09:48;;;;;;;8.88;4.88;;;;;;;16.73;41.78;91894.50;4979428;28;20108;-91
2023/12/10 00:12:13;;;;;;;9.30;4.45;;;;;;;16.67;42.28;91896.69;5003377;28;20032;-93
2023/12/10 00:14:39;;;;;;;8.48;4.68;;;;;;;16.71;41.99;91907.97;4997157;28;20038;-91
2023/12/10 00:17:04;;;;;;;9.32;4.60;;;;;;;16.68;42.18;91900.84;4989638;28;20158;-90
2023/12/10 00:19:31;;;;;;;5.35;4.25;;;;;;;16.71;41.79;91902.50;5009898;28;20394;-91
2023/12/10 00:21:57;;;;;;;7.30;4.15;;;;;;;16.68;42.24;91903.56;5008919;28;20032;-91
2023/12/10 00:24:22;;;;;;;8.15;5.05;;;;;;;16.65;42.16;91912.84;5009540;28;20141;-92
2023/12/10 00:26:48;;;;;;;5.40;3.70;;;;;;;16.66;41.94;91922.50;5020482;28;20043;-92
2023/12/10 00:29:13;;;;;;;7.68;4.20;;;;;;;16.72;41.93;91921.06;5006522;28;20679;-92
2023/12/10 00:31:45;;;;;;;7.45;3.83;;;;;;;16.66;42.27;91917.78;5024687;28;20040;-91
2023/12/10 00:34:10;;;;;;;6.00;4.03;;;;;;;16.72;42.09;91914.88;5007999;28;20040;-91
2023/12/10 00:36:36;;;;;;;9.60;4.72;;;;;;;16.64;42.23;91917.56;5011541;28;21093;-91
2023/12/10 00:39:04;;;;;;;5.80;3.22;;;;;;;16.66;41.98;91928.69;5006168;28;20109;-92
2023/12/10 00:41:30;;;;;;;8.10;3.72;;;;;;;16.65;42.27;91940.88;4994119;28;20039;-91
2023/12/10 00:43:55;;;;;;;5.72;3.78;;;;;;;16.70;41.70;91955.59;4999427;28;20639;-90
2023/12/10 00:46:21;;;;;;;7.75;4.15;;;;;;;16.72;41.82;91944.91;4994680;28;20032;-91
2023/12/10 00:48:46;;;;;;;7.82;3.88;;;;;;;16.67;42.06;91954.69;5016265;28;20028;-91
2023/12/10 00:51:20;;;;;;;10.95;4.57;;;;;;;16.62;42.40;91960.25;5029347;28;20480;-91
2023/12/10 00:53:46;;;;;;;8.27;4.15;;;;;;;16.63;42.37;91965.22;5013779;28;20353;-91
2023/12/10 00:56:11;;;;;;;5.75;4.10;;;;;;;16.65;42.00;91981.78;5029285;28;20374;-91
2023/12/10 00:58:37;;;;;;;6.88;4.20;;;;;;;16.68;41.97;91985.41;5023436;28;20032;-91
2023/12/10 01:01:02;;;;;;;7.38;4.13;;;;;;;16.65;42.12;92003.63;4999864;28;21241;-92
2023/12/10 01:03:28;;;;;;;6.78;3.63;;;;;;;16.72;42.04;92008.38;5045283;28;20527;-91
2023/12/10 01:05:53;;;;;;;5.43;3.95;;;;;;;16.65;42.00;92017.25;5011713;28;20475;-91
2023/12/10 01:08:20;;;;;;;8.75;3.80;;;;;;;16.63;42.25;92044.34;5011642;28;21329;-92
2023/12/10 01:10:45;;;;;;;4.75;3.53;;;;;;;16.71;42.04;92047.84;4997441;28;20027;-92
2023/12/10 01:13:10;;;;;;;10.45;3.70;;;;;;;16.64;42.29;92054.00;4991350;28;20508;-91
2023/12/10 01:15:36;;;;;;;5.25;3.80;;;;;;;16.63;42.41;92057.97;4968626;28;20138;-91
2023/12/10 01:18:01;;;;;;;6.72;3.70;;;;;;;16.73;41.96;92058.22;4936499;28;20804;-91
2023/12/10 01:20:30;;;;;;;6.00;4.05;;;;;;;16.73;42.17;92080.06;4937281;28;20933;-91
2023/12/10 01:22:56;;;;;;;6.47;4.03;;;;;;;16.66;42.19;92070.56;4950060;28;20393;-91
2023/12/10 01:25:21;;;;;;;5.38;3.97;;;;;;;16.78;41.82;92071.03;4932608;28;20084;-91
2023/12/10 01:27:47;;;;;;;4.53;3.78;;;;;;;16.74;42.20;92067.88;4927827;28;20499;-91
2023/12/10 01:30:13;;;;;;;8.68;3.95;;;;;;;16.72;41.99;92048.59;4933378;28;20166;-91
2023/12/10 01:32:40;;;;;;;5.90;3.47;;;;;;;16.64;42.21;92051.25;4956152;28;20033;-91
2023/12/10 01:35:05;;;;;;;6.70;3.58;;;;;;;16.65;42.01;92060.91;4971840;28;20053;-91
2023/12/10 01:37:31;;;;;;;4.78;3.72;;;;;;;16.72;42.15;92051.31;4972155;28;20115;-91
2023/12/10 01:39:56;;;;;;;4.68;3.55;;;;;;;16.66;42.18;92056.91;4930529;28;20153;-92
2023/12/10 01:42:22;;;;;;;6.35;3.17;;;;;;;16.70;42.47;92062.03;4918309;28;20143;-91
2023/12/10 01:44:47;;;;;;;4.95;3.63;;;;;;;16.64;42.32;92062.19;4923060;28;21325;-93
2023/12/10 01:47:13;;;;;;;5.32;4.50;;;;;;;16.70;42.18;92060.03;4948731;28;20052;-92
2023/12/10 01:49:39;;;;;;;6.15;3.58;;;;;;;16.68;42.13;92078.19;4968118;28;20126;-91
2023/12/10 01:52:05;;;;;;;4.60;3.40;;;;;;;16.65;42.41;92065.63;4951774;28;20037;-90
2023/12/10 01:54:30;;;;;;;5.65;3.80;;;;;;;16.58;42.40;92072.44;4978814;28;20519;-94
2023/12/10 01:56:56;;;;;;;5.07;3.72;;;;;;;16.67;42.32;92082.22;4932715;28;20057;-92
2023/12/10 01:59:22;;;;;;;4.60;3.28;;;;;;;16.67;42.20;92088.38;4943878;28;20527;-91
2023/12/10 02:01:47;;;;;;;3.90;2.78;;;;;;;16.63;42.43;92098.91;4922025;28;20069;-91
2023/12/10 02:04:15;;;;;;;4.63;2.90;;;;;;;16.74;42.20;92109.56;4928677;28;20534;-93
2023/12/10 02:06:42;;;;;;;5.22;3.00;;;;;;;16.70;41.92;92095.50;4941533;28;20146;-92
2023/12/10 02:09:13;;;;;;;5.43;3.30;;;;;;;16.68;41.90;92103.47;4945938;28;20127;-92
2023/12/10 02:11:39;;;;;;;5.63;3.03;;;;;;;16.72;42.08;92105.88;4905082;28;20045;-91
2023/12/10 02:14:05;;;;;;;4.60;2.92;;;;;;;16.71;41.90;92118.78;4888363;28;20456;-92
2023/12/10 02:16:31;;;;;;;5.82;2.92;;;;;;;16.66;42.13;92116.22;4867604;28;20047;-91
2023/12/10 02:18:57;;;;;;;4.70;3.03;;;;;;;16.71;42.28;92116.06;4902830;28;20046;-91
2023/12/10 02:21:22;;;;;;;4.32;3.40;;;;;;;16.66;42.38;92119.69;4928745;28;20065;-91
2023/12/10 02:24:08;;;;;;;5.93;3.53;;;;;;;16.67;42.42;92123.84;4926085;28;20050;-91
2023/12/10 02:26:34;;;;;;;4.65;2.95;;;;;;;16.69;42.14;92120.59;4928940;28;20046;-91
2023/12/10 02:28:59;;;;;;;4.28;3.00;;;;;;;16.75;42.21;92119.19;4998628;28;20048;-91
2023/12/10 02:31:25;;;;;;;3.88;3.13;;;;;;;16.71;42.17;92112.59;4999040;28;20037;-92
2023/12/10 02:33:51;;;;;;;5.28;3.22;;;;;;;16.66;42.09;92125.13;4997685;28;21207;-92
2023/12/10 02:36:17;;;;;;;5.75;2.95;;;;;;;16.66;42.06;92121.66;4998400;28;20041;-92
2023/12/10 02:38:44;;;;;;;5.80;3.70;;;;;;;16.67;42.22;92123.84;4983821;28;20042;-91
2023/12/10 02:41:09;;;;;;;4.95;2.80;;;;;;;16.67;42.17;92121.13;4950433;28;20037;-92
2023/12/10 02:43:34;;;;;;;4.80;3.15;;;;;;;16.69;42.16;92117.84;4930505;28;20037;-91
2023/12/10 02:46:00;;;;;;;5.25;3.30;;;;;;;16.67;42.26;92117.69;4970357;28;20077;-91
2023/12/10 02:48:25;;;;;;;5.18;3.25;;;;;;;16.70;42.12;92128.25;4970966;28;20057;-92
2023/12/10 02:50:51;;;;;;;4.22;2.97;;;;;;;16.67;42.42;92112.22;4969448;28;20024;-91
2023/12/10 02:53:17;;;;;;;7.07;3.13;;;;;;;16.66;42.20;92119.69;4999197;28;20449;-91
2023/12/10 02:55:42;;;;;;;5.20;3.30;;;;;;;16.63;42.15;92119.97;5008701;28;20054;-90
2023/12/10 02:58:08;;;;;;;5.07;3.40;;;;;;;16.70;42.24;92127.50;5020596;28;20046;-91
2023/12/10 03:00:34;;;;;;;4.50;2.95;;;;;;;16.66;42.44;92116.94;5027726;28;20039;-91
2023/12/10 03:02:59;;;;;;;3.97;2.88;;;;;;;16.62;42.11;92130.16;5033147;28;20484;-91
2023/12/10 03:05:25;;;;;;;4.13;2.65;;;;;;;16.59;42.26;92139.38;5046477;28;20035;-91
2023/12/10 03:07:51;;;;;;;5.45;3.00;;;;;;;16.67;42.15;92151.13;5040016;28;20061;-91
2023/12/10 03:10:16;;;;;;;4.43;3.28;;;;;;;16.62;42.35;92157.44;4999649;28;20040;-91
2023/12/10 03:12:41;;;;;;;4.00;3.05;;;;;;;16.63;42.63;92156.19;4988591;28;20027;-91
2023/12/10 03:15:07;;;;;;;4.88;2.38;;;;;;;16.67;42.35;92172.97;4971109;28;20138;-91
2023/12/10 03:17:33;;;;;;;4.40;2.95;;;;;;;16.69;42.39;92175.88;4996053;28;20037;-90
2023/12/10 03:19:58;;;;;;;4.32;2.70;;;;;;;16.68;42.03;92181.88;4993326;28;20487;-91
2023/12/10 03:22:23;;;;;;;4.80;3.25;;;;;;;16.68;42.38;92181.88;5037357;28;20027;-93
2023/12/10 03:24:49;;;;;;;3.65;2.53;;;;;;;16.74;41.87;92191.41;5016652;28;20060;-91
2023/12/10 03:27:14;;;;;;;4.47;2.78;;;;;;;16.72;42.00;92190.47;5034544;28;20036;-91
2023/12/10 03:29:40;;;;;;;3.38;2.70;;;;;;;16.64;42.43;92189.69;5029731;28;20036;-91
2023/12/10 03:32:06;;;;;;;4.82;3.05;;;;;;;16.64;42.08;92200.59;5014980;28;20136;-91
2023/12/10 03:34:31;;;;;;;5.45;2.63;;;;;;;16.60;42.31;92206.34;5009749;28;20032;-90
2023/12/10 03:36:56;;;;;;;3.38;2.80;;;;;;;16.62;42.48;92205.81;5031948;28;20040;-92
2023/12/10 03:39:22;;;;;;;4.82;2.45;;;;;;;16.64;42.39;92208.78;5000965;28;20174;-91
2023/12/10 03:41:48;;;;;;;4.38;2.55;;;;;;;16.65;42.35;92212.97;4991275;28;20121;-90
2023/12/10 03:44:14;;;;;;;4.63;2.47;;;;;;;16.64;42.36;92225.16;4984426;28;21059;-90
2023/12/10 03:46:39;;;;;;;4.50;2.90;;;;;;;16.71;42.25;92232.66;4987694;28;21035;-91
2023/12/10 03:49:05;;;;;;;3.50;2.33;;;;;;;16.64;42.33;92246.97;4985897;28;20537;-91
2023/12/10 03:51:30;;;;;;;3.65;2.20;;;;;;;16.67;42.32;92245.91;4978918;28;20122;-91
2023/12/10 03:53:56;;;;;;;4.07;2.60;;;;;;;16.74;42.41;92265.09;5007749;28;20846;-91
2023/12/10 03:56:21;;;;;;;4.07;2.30;;;;;;;16.70;42.10;92280.31;5007590;28;20059;-90
2023/12/10 03:58:47;;;;;;;5.72;2.38;;;;;;;16.65;41.83;92287.38;5007750;28;20725;-90
2023/12/10 04:01:12;;;;;;;3.80;2.63;;;;;;;16.61;42.32;92302.56;5011987;28;20062;-91
2023/12/10 04:03:37;;;;;;;5.32;2.80;;;;;;;16.63;42.23;92309.00;5013485;28;20337;-90
2023/12/10 04:06:03;;;;;;;3.05;2.22;;;;;;;16.65;42.26;92309.19;5027891;28;20437;-92
2023/12/10 04:08:29;;;;;;;4.50;2.25;;;;;;;16.65;42.53;92313.94;5009226;28;20375;-91
2023/12/10 04:10:54;;;;;;;5.32;2.65;;;;;;;16.58;42.66;92315.25;4972872;28;20049;-91
2023/12/10 04:13:20;;;;;;;4.07;2.15;;;;;;;16.56;42.53;92328.69;4990608;28;20904;-91
2023/12/10 04:15:46;;;;;;;3.95;2.30;;;;;;;16.61;42.58;92316.94;4977369;28;20048;-92
2023/12/10 04:18:12;;;;;;;3.85;2.63;;;;;;;16.64;42.36;92307.00;4983222;28;20458;-90
2023/12/10 04:20:38;;;;;;;4.32;2.67;;;;;;;16.60;42.84;92307.28;4997827;28;20451;-91
2023/12/10 04:23:03;;;;;;;3.17;2.35;;;;;;;16.59;42.48;92316.00;4991640;28;20070;-91
2023/12/10 04:25:29;;;;;;;3.60;2.25;;;;;;;16.63;42.36;92321.88;4970044;28;20072;-90
2023/12/10 04:27:54;;;;;;;6.88;2.08;;;;;;;16.70;42.14;92329.44;4965742;28;20041;-91
2023/12/10 04:30:20;;;;;;;3.10;1.92;;;;;;;16.67;42.26;92319.59;4992301;28;20053;-91
2023/12/10 04:32:46;;;;;;;2.78;2.10;;;;;;;16.66;42.42;92334.50;4977602;28;20045;-91
2023/12/10 04:35:11;;;;;;;5.22;2.00;;;;;;;16.63;42.63;92333.56;4964021;28;20061;-92
2023/12/10 04:37:37;;;;;;;3.13;2.00;;;;;;;16.66;42.22;92342.69;4978992;28;20040;-91
2023/12/10 04:40:03;;;;;;;2.67;2.15;;;;;;;16.64;42.08;92340.47;4958614;28;20045;-92
2023/12/10 04:42:28;;;;;;;4.13;2.08;;;;;;;16.65;42.14;92344.69;4958163;28;20557;-91
2023/12/10 04:44:55;;;;;;;3.38;2.17;;;;;;;16.65;42.15;92355.59;4958305;28;20061;-92
2023/12/10 04:47:22;;;;;;;2.28;1.90;;;;;;;16.62;42.51;92350.41;4969710;28;20041;-91
2023/12/10 04:49:47;;;;;;;3.60;2.10;;;;;;;16.58;42.53;92366.34;4925504;28;20107;-89
2023/12/10 04:52:13;;;;;;;3.55;2.33;;;;;;;16.57;42.74;92368.34;4920600;28;20042;-91
2023/12/10 04:54:38;;;;;;;4.20;2.03;;;;;;;16.57;42.64;92378.53;4921641;28;20062;-90
2023/12/10 04:57:04;;;;;;;3.53;2.38;;;;;;;16.60;42.52;92391.13;4946927;28;20044;-89
2023/12/10 04:59:29;;;;;;;2.70;2.13;;;;;;;16.58;42.64;92393.63;4966024;28;20522;-90
2023/12/10 05:01:54;;;;;;;4.50;2.17;;;;;;;16.61;42.37;92398.78;4969653;28;20106;-91
2023/12/10 05:04:20;;;;;;;2.83;1.75;;;;;;;16.67;41.95;92415.09;4990012;28;20044;-90
2023/12/10 05:06:45;;;;;;;4.95;2.00;;;;;;;16.64;42.50;92410.69;4993239;28;20628;-90
2023/12/10 05:09:11;;;;;;;3.95;2.28;;;;;;;16.70;42.17;92424.94;4988728;28;20477;-92
2023/12/10 05:11:37;;;;;;;2.83;2.05;;;;;;;16.63;42.47;92420.09;4969758;28;20032;-91
2023/12/10 05:14:03;;;;;;;4.45;2.08;;;;;;;16.65;42.47;92423.06;4987941;28;20028;-90
2023/12/10 05:16:29;;;;;;;3.05;2.25;;;;;;;16.72;42.35;92436.06;4988535;28;20043;-90
2023/12/10 05:18:54;;;;;;;2.08;1.80;;;;;;;16.63;42.33;92436.47;4978564;28;20041;-90
2023/12/10 05:21:19;;;;;;;3.00;2.17;;;;;;;16.61;42.09;92447.16;4966238;28;20032;-90
2023/12/10 05:23:45;;;;;;;2.42;1.92;;;;;;;16.62;42.73;92452.09;4990672;28;20040;-90
2023/12/10 05:26:10;;;;;;;2.63;2.00;;;;;;;16.61;42.45;92453.38;5028348;28;20472;-90
2023/12/10 05:28:36;;;;;;;3.20;2.00;;;;;;;16.60;42.55;92465.53;5028490;28;20087;-90
2023/12/10 05:31:01;;;;;;;2.65;2.30;;;;;;;16.58;42.43;92475.50;5044453;28;20100;-90
2023/12/10 05:33:27;;;;;;;3.55;1.73;;;;;;;16.61;42.56;92469.00;5009293;28;20501;-91
2023/12/10 05:35:52;;;;;;;2.78;1.90;;;;;;;16.53;42.85;92468.88;5026344;28;20036;-91
2023/12/10 05:38:17;;;;;;;3.22;2.00;;;;;;;16.59;42.68;92480.44;5019906;28;20691;-90
2023/12/10 05:40:43;;;;;;;2.40;1.98;;;;;;;16.61;42.42;92477.91;4998151;28;21316;-92
2023/12/10 05:43:08;;;;;;;3.38;2.00;;;;;;;16.57;42.50;92482.19;4989235;28;20106;-90
2023/12/10 05:45:34;;;;;;;2.08;1.77;;;;;;;16.64;42.34;92471.44;4991507;28;20571;-90
2023/12/10 05:47:59;;;;;;;2.72;1.58;;;;;;;16.69;42.36;92472.59;5015155;28;20039;-90
2023/12/10 05:50:25;;;;;;;3.25;1.65;;;;;;;16.62;42.63;92482.13;5005511;28;20032;-90
2023/12/10 05:52:50;;;;;;;3.53;1.92;;;;;;;16.72;42.31;92477.00;4991940;28;20125;-90
2023/12/10 05:55:15;;;;;;;3.00;1.90;;;;;;;16.62;42.57;92489.56;5041803;28;20032;-90
2023/12/10 05:57:41;;;;;;;2.20;1.90;;;;;;;16.65;42.29;92496.75;5045700;28;20405;-90
2023/12/10 06:00:07;;;;;;;3.75;2.65;;;;;;;16.58;42.70;92497.31;5023822;28;20032;-90
2023/12/10 06:02:33;;;;;;;3.33;1.80;;;;;;;16.57;42.65;92482.19;5008476;28;20028;-91
2023/12/10 06:04:58;;;;;;;2.42;1.55;;;;;;;16.55;42.52;92501.81;5017702;28;20442;-90
2023/12/10 06:07:24;;;;;;;2.90;1.85;;;;;;;16.59;42.68;92493.34;5000094;28;20074;-91
2023/12/10 06:09:49;;;;;;;2.15;1.60;;;;;;;16.61;42.58;92512.66;4956677;28;20044;-90
2023/12/10 06:12:15;;;;;;;2.83;1.85;;;;;;;16.53;42.67;92515.25;4955435;28;20041;-90
2023/12/10 06:14:40;;;;;;;2.70;2.08;;;;;;;16.54;42.45;92505.06;4917764;28;20091;-91
2023/12/10 06:17:06;;;;;;;3.58;1.80;;;;;;;16.54;42.71;92508.53;4899964;28;20102;-91
2023/12/10 06:19:31;;;;;;;2.75;1.83;;;;;;;16.60;42.57;92503.00;4919294;28;20139;-90
2023/12/10 06:21:56;;;;;;;2.05;1.63;;;;;;;16.63;42.41;92510.16;4899859;28;20057;-90
2023/12/10 06:24:22;;;;;;;3.55;1.85;;;;;;;16.64;42.39;92530.75;4900032;28;20053;-90
2023/12/10 06:26:47;;;;;;;2.17;1.60;;;;;;;16.58;42.45;92525.34;4916398;28;20546;-91
2023/12/10 06:29:14;;;;;;;1.98;1.60;;;;;;;16.60;42.28;92522.84;4890708;28;20562;-91
2023/12/10 06:31:40;;;;;;;1.48;1.25;;;;;;;16.55;42.40;92537.28;4855189;28;20053;-92
2023/12/10 06:34:05;;;;;;;4.65;1.90;;;;;;;16.58;42.53;92557.34;4862805;28;20655;-90
2023/12/10 06:36:31;;;;;;;3.33;1.60;;;;;;;16.61;42.47;92559.78;4865444;29;20470;-89
2023/12/10 06:38:56;;;;;;;4.07;1.88;;;;;;;16.60;42.26;92565.75;4876389;29;21539;-91
2023/12/10 06:41:22;;;;;;;1.90;1.50;;;;;;;16.62;42.30;92565.97;4869548;28;20047;-90
2023/12/10 06:43:47;;;;;;;3.13;1.95;;;;;;;16.57;42.50;92553.13;4879321;28;20059;-91
2023/12/10 06:46:17;;;;;;;2.47;1.50;;;;;;;16.56;42.79;92552.41;4883094;29;20850;-91
2023/12/10 06:48:42;;;;;;;2.60;1.70;;;;;;;16.58;42.42;92557.34;4868686;29;20044;-90
2023/12/10 06:51:08;;;;;;;2.40;1.63;;;;;;;16.57;42.46;92564.06;4875885;28;20175;-90
2023/12/10 06:53:34;;;;;;;2.15;1.48;;;;;;;16.69;42.13;92557.19;4900435;28;20105;-90
2023/12/10 06:55:59;;;;;;;1.95;1.33;;;;;;;16.65;42.30;92582.06;4890414;28;20476;-90
2023/12/10 06:58:25;;;;;;;2.20;1.67;;;;;;;16.65;42.42;92578.59;4891234;28;20035;-90
2023/12/10 07:00:50;;;;;;;2.08;1.60;;;;;;;16.62;42.55;92587.78;4931755;28;20103;-90
2023/12/10 07:03:16;;;;;;;2.92;1.50;;;;;;;16.63;42.24;92595.50;4924385;28;20199;-90
2023/12/10 07:05:41;;;;;;;3.63;1.63;;;;;;;16.69;42.36;92601.59;4977635;28;20087;-91
2023/12/10 07:08:07;;;;;;;2.13;1.52;;;;;;;16.71;42.15;92601.06;4993625;28;20047;-90
2023/12/10 07:10:32;;;;;;;2.67;1.50;;;;;;;16.65;42.42;92612.09;4952069;28;20510;-90
2023/12/10 07:12:58;;;;;;;3.60;1.65;;;;;;;16.60;42.29;92598.50;4941869;28;20341;-90
2023/12/10 07:15:23;;;;;;;2.35;1.40;;;;;;;16.63;42.46;92608.38;4958860;28;20032;-93
2023/12/10 07:17:49;;;;;;;2.45;1.50;;;;;;;16.66;42.19;92621.75;4971684;28;20386;-90
2023/12/10 07:20:14;;;;;;;2.30;1.52;;;;;;;16.67;42.46;92633.41;4983430;28;20109;-91
2023/12/10 07:22:41;;;;;;;2.03;1.42;;;;;;;16.60;42.35;92631.22;4993968;28;21165;-91
2023/12/10 07:25:07;;;;;;;2.33;1.55;;;;;;;16.59;42.41;92654.31;4980745;28;20647;-91
2023/12/10 07:27:32;;;;;;;2.05;1.42;;;;;;;16.56;42.55;92660.81;4982154;28;20048;-92
2023/12/10 07:29:58;;;;;;;2.08;1.40;;;;;;;16.60;42.62;92664.72;4952502;28;20056;-91
2023/12/10 07:32:24;;;;;;;2.58;1.17;;;;;;;16.63;42.67;92666.44;4968108;28;20076;-91
2023/12/10 07:34:49;;;;;;;2.90;1.27;;;;;;;16.65;42.21;92672.13;5014148;28;20215;-91
2023/12/10 07:37:15;;;;;;;2.53;1.27;;;;;;;16.63;42.40;92666.44;5006231;28;20132;-91
2023/12/10 07:39:40;;;;;;;1.85;1.27;;;;;;;16.60;42.49;92677.63;4999812;28;20446;-90
2023/12/10 07:42:06;;;;;;;1.90;1.38;;;;;;;16.62;42.43;92683.31;4981232;28;20063;-90
2023/12/10 07:44:31;;;;;;;2.33;1.10;;;;;;;16.70;42.20;92687.66;4966220;28;20080;-90
2023/12/10 07:46:58;;;;;;;1.60;1.05;;;;;;;16.66;42.40;92686.50;4951271;28;20061;-92
2023/12/10 07:49:23;;;;;;;1.83;1.30;;;;;;;16.67;42.51;92688.69;4983551;28;20514;-90
2023/12/10 07:51:49;;;;;;;2.17;1.65;;;;;;;16.62;42.56;92697.69;4956659;28;20051;-90
2023/12/10 07:54:14;;;;;;;2.25;1.58;;;;;;;16.63;42.41;92688.28;4969690;28;20317;-91
2023/12/10 07:56:41;;;;;;;1.80;1.20;;;;;;;16.59;42.49;92690.53;4948739;28;20380;-91
2023/12/10 07:59:06;;;;;;;2.50;1.60;;;;;;;16.59;42.36;92695.25;4922854;28;20050;-91
2023/12/10 08:01:32;;;;;;;1.70;1.30;;;;;;;16.57;42.71;92706.66;4946482;28;20046;-91
2023/12/10 08:03:57;;;;;;;1.48;1.00;;;;;;;16.63;42.42;92690.22;4965468;28;20054;-90
2023/12/10 08:06:22;;;;;;;2.13;1.30;;;;;;;16.57;42.78;92703.22;4950055;28;20037;-91
2023/12/10 08:08:48;;;;;;;1.83;1.50;;;;;;;16.59;42.50;92704.16;4942811;28;21115;-91
2023/12/10 08:11:13;;;;;;;1.95;1.20;;;;;;;16.55;42.33;92708.44;4902423;28;20587;-90
2023/12/10 08:13:39;;;;;;;3.47;1.33;;;;;;;16.62;42.36;92716.03;4932920;28;20065;-91
2023/12/10 08:16:05;;;;;;;1.67;1.17;;;;;;;16.62;42.60;92716.78;4907141;28;20998;-90
2023/12/10 08:18:31;;;;;;;1.63;1.20;;;;;;;16.65;42.16;92725.97;4908909;28;20050;-90
2023/12/10 08:20:56;;;;;;;1.90;1.30;;;;;;;16.64;42.14;92741.59;4924672;28;20543;-90
2023/12/10 08:23:21;;;;;;;1.33;1.15;;;;;;;16.66;42.47;92741.81;4877605;28;21194;-91
2023/12/10 08:25:47;;;;;;;1.75;1.40;;;;;;;16.71;42.16;92730.06;4871269;28;20532;-90
2023/12/10 08:28:12;;;;;;;1.90;1.55;;;;;;;16.64;42.20;92743.59;4898628;28;20271;-89
2023/12/10 08:30:38;;;;;;;1.55;1.17;;;;;;;16.65;42.42;92745.06;4885583;28;20051;-91
2023/12/10 08:33:03;;;;;;;1.45;1.20;;;;;;;16.64;42.43;92736.13;4902457;28;20043;-90
2023/12/10 08:35:29;;;;;;;1.42;1.10;;;;;;;16.66;42.16;92752.72;4913800;28;20104;-90
2023/12/10 08:37:54;;;;;;;2.63;1.30;;;;;;;16.60;41.88;92757.50;4908352;28;20545;-91
2023/12/10 08:40:20;;;;;;;1.45;1.27;;;;;;;16.61;42.67;92758.22;4883955;28;20380;-90
2023/12/10 08:42:46;;;;;;;1.85;1.30;;;;;;;16.64;42.34;92763.44;4891397;28;20542;-90
2023/12/10 08:45:12;;;;;;;1.95;1.30;;;;;;;16.60;42.62;92771.13;4905239;28;20962;-91
2023/12/10 08:47:37;;;;;;;1.25;1.10;;;;;;;16.65;42.36;92766.91;4913036;28;20080;-91
2023/12/10 08:50:03;;;;;;;1.10;0.82;;;;;;;16.73;42.23;92771.25;4947691;28;20048;-90
2023/12/10 08:52:30;;;;;;;1.98;1.10;;;;;;;16.61;42.39;92766.41;4968200;28;20195;-92
2023/12/10 08:54:55;;;;;;;2.85;1.10;;;;;;;16.69;41.97;92770.03;4999266;28;20448;-91
2023/12/10 08:57:21;;;;;;;1.85;1.13;;;;;;;16.72;42.30;92777.22;5025640;28;20048;-91
2023/12/10 08:59:47;;;;;;;1.60;1.30;;;;;;;16.66;42.35;92787.47;4996465;28;20082;-91
2023/12/10 09:02:12;;;;;;;1.58;1.13;;;;;;;16.66;42.48;92779.28;5012930;28;20049;-91
2023/12/10 09:04:38;;;;;;;2.40;1.33;;;;;;;16.67;42.18;92800.56;4991944;28;20067;-91
2023/12/10 09:07:03;;;;;;;2.22;1.10;;;;;;;16.70;42.44;92794.09;4987603;28;20055;-90
2023/12/10 09:09:29;;;;;;;2.05;1.35;;;;;;;16.66;42.14;92790.94;4970811;28;21934;-91
2023/12/10 09:11:54;;;;;;;1.95;0.90;;;;;;;16.67;42.27;92792.41;4952429;28;20541;-91
2023/12/10 09:14:21;;;;;;;1.67;1.17;;;;;;;16.65;42.42;92805.09;4974969;28;20028;-90
2023/12/10 09:16:47;;;;;;;2.28;1.10;;;;;;;16.59;42.35;92807.13;4984134;28;20545;-90
2023/12/10 09:19:13;;;;;;;1.70;1.20;;;;;;;16.67;42.65;92813.50;4975708;28;20084;-90
2023/12/10 09:21:39;;;;;;;1.08;0.90;;;;;;;16.65;42.61;92816.00;4988458;28;20043;-91
2023/12/10 09:24:05;;;;;;;1.75;1.17;;;;;;;16.61;42.47;92832.63;4971633;28;20036;-91
2023/12/10 09:26:30;;;;;;;1.45;1.20;;;;;;;16.63;42.25;92835.63;4973204;28;20043;-90
2023/12/10 09:28:56;;;;;;;1.48;0.95;;;;;;;16.69;42.25;92830.09;5016408;28;20967;-90
2023/12/10 09:31:21;;;;;;;1.55;1.00;;;;;;;16.64;42.41;92830.91;5010729;28;20055;-89
2023/12/10 09:33:48;;;;;;;1.65;1.27;;;;;;;16.62;42.70;92847.75;5008678;28;20055;-90
2023/12/10 09:36:15;;;;;;;1.17;0.95;;;;;;;16.60;42.46;92833.16;5028488;28;20058;-90
2023/12/10 09:38:41;;;;;;;2.03;0.98;;;;;;;16.62;42.51;92841.56;5022404;28;20105;-92
2023/12/10 09:41:07;;;;;;;1.85;1.30;;;;;;;16.58;42.56;92830.94;5030040;28;20670;-91
2023/12/10 09:43:33;;;;;;;2.90;1.00;;;;;;;16.63;42.55;92843.81;5000431;28;21227;-90
2023/12/10 09:46:00;;;;;;;1.20;1.10;;;;;;;16.64;42.38;92845.28;5006002;28;20028;-91
2023/12/10 09:48:25;;;;;;;1.50;1.00;;;;;;;16.62;42.38;92839.56;4984949;28;20936;-90
2023/12/10 09:50:51;;;;;;;1.60;1.30;;;;;;;16.61;42.41;92845.53;4977358;28;20064;-90
2023/12/10 09:53:17;;;;;;;2.28;1.00;;;;;;;16.63;42.53;92852.00;4966918;28;20678;-91
2023/12/10 09:55:43;;;;;;;1.67;1.20;;;;;;;16.68;42.48;92858.63;4964163;28;20592;-90
2023/12/10 09:58:08;;;;;;;1.90;1.05;;;;;;;16.63;42.74;92862.91;4999754;28;20052;-90
2023/12/10 10:00:34;;;;;;;2.13;1.38;;;;;;;16.61;42.35;92859.19;4982062;28;20028;-90
2023/12/10 10:03:02;;;;;;;1.63;1.00;;;;;;;16.66;42.71;92855.69;5020692;28;20036;-91
2023/12/10 10:05:28;;;;;;;2.30;1.02;;;;;;;16.65;42.22;92851.50;5017230;28;20589;-92
2023/12/10 10:07:53;;;;;;;1.52;1.00;;;;;;;16.66;42.73;92842.06;4981468;28;20055;-90
2023/12/10 10:10:22;;;;;;;1.60;1.02;;;;;;;16.68;42.14;92843.00;4971406;28;20157;-90
2023/12/10 10:12:48;;;;;;;2.40;0.82;;;;;;;16.63;42.53;92849.28;4973210;28;20063;-91
2023/12/10 10:15:13;;;;;;;1.60;0.95;;;;;;;16.65;42.45;92860.41;4964116;28;20174;-92
2023/12/10 10:17:39;;;;;;;1.65;1.05;;;;;;;16.70;42.44;92865.06;4963669;28;20037;-92
2023/12/10 10:20:05;;;;;;;1.10;0.93;;;;;;;16.58;42.40;92855.50;4997496;28;20028;-91
2023/12/10 10:22:30;;;;;;;1.17;0.90;;;;;;;16.65;42.61;92859.69;5007647;28;21287;-92
2023/12/10 10:24:56;;;;;;;1.55;1.10;;;;;;;16.68;42.47;92862.09;5008233;28;20047;-91
2023/12/10 10:27:22;;;;;;;1.35;1.10;;;;;;;16.68;42.51;92866.81;5017579;28;20461;-91
2023/12/10 10:29:53;;;;;;;1.00;0.80;;;;;;;16.67;42.32;92863.34;5022775;28;20040;-90
2023/12/10 10:32:19;;;;;;;1.05;0.90;;;;;;;16.64;42.82;92860.94;5020832;28;20835;-92
2023/12/10 10:34:44;;;;;;;2.05;1.17;;;;;;;16.66;42.49;92872.81;5020231;28;20386;-91
2023/12/10 10:37:10;;;;;;;2.15;1.30;;;;;;;16.68;42.66;92873.00;5004175;28;20032;-92
2023/12/10 10:39:35;;;;;;;1.13;0.85;;;;;;;16.66;42.39;92875.53;5017351;28;20624;-91
2023/12/10 10:42:04;;;;;;;2.55;1.13;;;;;;;16.70;42.38;92875.97;5003327;28;20100;-91
2023/12/10 10:44:31;;;;;;;1.30;1.08;;;;;;;16.69;42.18;92884.66;4993787;28;21004;-91
2023/12/10 10:46:58;;;;;;;1.52;1.02;;;;;;;16.66;42.29;92872.06;5010034;28;20635;-91
2023/12/10 10:49:23;;;;;;;1.65;1.15;;;;;;;16.66;42.59;92870.09;4994442;28;20047;-91
2023/12/10 10:51:49;;;;;;;1.02;0.90;;;;;;;16.69;42.41;92879.22;4978357;28;20048;-91
2023/12/10 10:54:14;;;;;;;2.28;0.82;;;;;;;16.67;42.33;92876.28;4969601;28;20051;-91
2023/12/10 10:56:40;;;;;;;2.28;1.00;;;;;;;16.72;42.76;92894.56;4967847;28;20078;-90
2023/12/10 10:59:29;;;;;;;3.70;1.00;;;;;;;16.70;42.57;92889.63;4967688;28;21183;-91
2023/12/10 11:01:55;;;;;;;1.38;1.00;;;;;;;16.67;42.41;92896.09;4987097;28;20403;-91
2023/12/10 11:04:21;;;;;;;1.40;0.98;;;;;;;16.63;42.74;92881.25;4971048;28;20036;-91
2023/12/10 11:06:49;;;;;;;2.97;0.90;;;;;;;16.65;42.36;92884.97;4947910;28;20402;-91
2023/12/10 11:09:16;;;;;;;1.50;1.05;;;;;;;16.68;42.20;92888.66;4953287;28;20037;-92
2023/12/10 11:11:42;;;;;;;1.20;0.90;;;;;;;16.72;42.58;92884.38;4947254;28;20525;-91
2023/12/10 11:14:22;;;;;;;1.10;0.75;;;;;;;16.63;42.54;92883.97;4931120;28;20646;-90
2023/12/10 11:16:57;;;;;;;1.33;0.85;;;;;;;16.60;42.68;92879.53;4933738;28;20672;-91
2023/12/10 11:19:23;;;;;;;2.08;1.00;;;;;;;16.59;42.97;92891.69;4941113;28;20036;-91
2023/12/10 11:21:49;;;;;;;1.90;1.00;;;;;;;16.62;42.08;92888.69;4889699;28;20128;-91
2023/12/10 11:24:15;;;;;;;1.98;0.95;;;;;;;16.61;42.83;92889.94;4916040;28;20472;-91
2023/12/10 11:26:40;;;;;;;2.85;0.93;;;;;;;16.62;42.50;92885.97;4918190;28;20114;-92